Time;durP1;ratioP1;P1;durP2;ratioP2;P2;SDS_P1;SDS_P2;PMS_P1;PMS_P2;Temp;Humidity;BMP_temperature;BMP_pressure;BME280_temperature;BME280_humidity;BME280_pressure;Samples;Min_cycle;Max_cycle;Signal;HPM_P1;HPM_P2
2021/12/19 00:01:10;;;;;;;363.97;335.87;;;7.20;99.90;;;;;;4984132;28;20203;-80
2021/12/19 00:09:05;;;;;;;358.30;332.60;;;7.10;99.90;;;;;;4991262;28;20249;-79
2021/12/19 00:11:32;;;;;;;349.77;325.07;;;7.10;99.90;;;;;;5001189;28;20199;-80
2021/12/19 00:13:58;;;;;;;348.70;323.23;;;7.00;99.90;;;;;;4999745;28;20203;-79
2021/12/19 00:16:25;;;;;;;348.47;322.50;;;7.10;99.90;;;;;;5006057;28;20233;-79
2021/12/19 00:18:52;;;;;;;348.70;324.00;;;7.00;99.90;;;;;;4966965;28;20231;-79
2021/12/19 00:21:20;;;;;;;349.20;323.83;;;6.90;99.90;;;;;;4999828;28;20263;-79
2021/12/19 00:23:48;;;;;;;348.90;323.53;;;7.00;99.90;;;;;;4999529;28;20179;-80
2021/12/19 00:26:15;;;;;;;347.03;321.80;;;7.00;99.90;;;;;;4999680;28;20202;-79
2021/12/19 00:28:42;;;;;;;337.97;314.10;;;7.00;99.90;;;;;;4990209;28;20272;-78
2021/12/19 00:31:07;;;;;;;334.30;311.47;;;7.00;99.90;;;;;;4989256;28;20203;-79
2021/12/19 00:33:33;;;;;;;329.13;306.10;;;7.00;99.90;;;;;;4998447;28;20208;-80
2021/12/19 00:35:59;;;;;;;325.03;303.53;;;7.00;99.90;;;;;;4988895;28;20202;-78
2021/12/19 00:38:25;;;;;;;320.40;298.90;;;7.00;99.90;;;;;;4973745;28;20588;-79
2021/12/19 00:40:51;;;;;;;313.30;292.80;;;7.00;99.90;;;;;;4973019;28;20282;-78
2021/12/19 00:43:34;;;;;;;309.80;289.90;;;7.00;99.90;;;;;;5000727;28;20678;-78
2021/12/19 00:46:06;;;;;;;307.87;287.97;;;6.90;99.90;;;;;;4991201;28;20191;-79
2021/12/19 00:48:33;;;;;;;296.53;277.97;;;6.90;99.90;;;;;;4989308;28;20183;-79
2021/12/19 00:50:59;;;;;;;295.07;276.83;;;6.90;99.90;;;;;;4981717;28;20244;-80
2021/12/19 00:53:25;;;;;;;291.67;273.60;;;6.90;99.90;;;;;;4989205;28;20204;-79
2021/12/19 00:55:50;;;;;;;292.00;274.03;;;6.90;99.90;;;;;;4989731;28;20900;-80
2021/12/19 00:58:17;;;;;;;287.87;269.97;;;6.90;99.90;;;;;;4999851;28;20196;-80
2021/12/19 01:00:43;;;;;;;284.47;266.67;;;6.90;99.90;;;;;;4981258;28;20196;-79
2021/12/19 01:03:09;;;;;;;275.63;259.43;;;6.90;99.90;;;;;;4965268;28;20226;-79
2021/12/19 01:05:37;;;;;;;275.13;258.87;;;6.90;99.90;;;;;;4999430;28;20183;-79
2021/12/19 01:08:05;;;;;;;266.20;250.67;;;6.80;99.90;;;;;;4974913;28;20888;-79
2021/12/19 01:10:32;;;;;;;264.37;249.13;;;6.80;99.90;;;;;;4953411;28;20684;-79
2021/12/19 01:12:58;;;;;;;260.77;245.87;;;6.80;99.90;;;;;;4980048;28;20215;-80
2021/12/19 01:15:24;;;;;;;257.13;242.33;;;6.90;99.90;;;;;;4964377;28;20600;-79
2021/12/19 01:17:51;;;;;;;250.37;236.17;;;6.90;99.90;;;;;;4969333;28;20749;-79
2021/12/19 01:20:20;;;;;;;248.90;234.87;;;6.90;99.90;;;;;;4970400;28;20680;-79
2021/12/19 01:22:46;;;;;;;243.90;230.10;;;6.80;99.90;;;;;;4962731;28;20185;-79
2021/12/19 01:25:12;;;;;;;244.50;230.50;;;6.80;99.90;;;;;;4954206;28;20833;-79
2021/12/19 01:27:38;;;;;;;239.80;226.10;;;6.80;99.90;;;;;;4967742;28;20208;-79
2021/12/19 01:30:06;;;;;;;235.60;222.43;;;6.70;99.90;;;;;;4967472;28;20192;-78
2021/12/19 01:32:32;;;;;;;237.10;223.80;;;6.70;99.90;;;;;;4973927;28;20204;-78
2021/12/19 01:34:58;;;;;;;236.90;223.87;;;6.70;99.90;;;;;;4973676;28;20688;-78
2021/12/19 01:37:24;;;;;;;255.00;240.40;;;6.70;99.90;;;;;;4949126;28;20184;-79
2021/12/19 01:39:49;;;;;;;269.90;254.27;;;6.70;99.90;;;;;;4956703;28;20188;-79
2021/12/19 01:42:19;;;;;;;279.90;263.47;;;6.70;99.90;;;;;;4966019;28;20268;-79
2021/12/19 01:44:46;;;;;;;295.77;278.07;;;6.60;99.90;;;;;;4965840;28;20601;-78
2021/12/19 01:47:13;;;;;;;306.03;287.23;;;6.60;99.90;;;;;;4965427;28;20243;-78
2021/12/19 01:49:39;;;;;;;313.70;293.73;;;6.60;99.90;;;;;;4950461;28;20188;-79
2021/12/19 01:52:05;;;;;;;324.33;302.93;;;6.60;99.90;;;;;;4966392;28;20236;-79
2021/12/19 01:54:31;;;;;;;329.60;307.80;;;6.60;99.90;;;;;;4957649;28;20243;-79
2021/12/19 01:56:57;;;;;;;335.67;313.10;;;6.60;99.90;;;;;;4955985;28;20265;-80
2021/12/19 01:59:22;;;;;;;339.30;316.17;;;6.60;99.90;;;;;;4972424;28;20660;-80
2021/12/19 02:01:52;;;;;;;341.13;317.90;;;6.60;99.90;;;;;;4969201;28;20191;-80
2021/12/19 02:04:19;;;;;;;346.83;322.97;;;6.50;99.90;;;;;;4966519;28;20215;-79
2021/12/19 02:06:46;;;;;;;346.20;322.00;;;6.60;99.90;;;;;;4961312;28;20252;-79
2021/12/19 02:09:12;;;;;;;353.60;329.07;;;6.60;99.90;;;;;;5009133;28;20190;-81
2021/12/19 02:11:40;;;;;;;358.33;332.43;;;6.60;99.90;;;;;;4976710;28;20211;-80
2021/12/19 02:14:07;;;;;;;360.87;334.53;;;6.60;99.90;;;;;;4986895;28;20250;-80
2021/12/19 02:16:36;;;;;;;366.53;340.30;;;6.60;99.90;;;;;;5002598;28;20540;-80
2021/12/19 02:19:02;;;;;;;369.97;343.30;;;6.60;99.90;;;;;;5003141;28;20194;-80
2021/12/19 02:21:28;;;;;;;373.50;346.27;;;6.60;99.90;;;;;;4993072;28;20191;-80
2021/12/19 02:23:57;;;;;;;373.53;346.47;;;6.70;99.90;;;;;;4971389;28;20188;-79
2021/12/19 02:26:23;;;;;;;377.57;349.97;;;6.70;99.90;;;;;;4985002;28;20215;-78
2021/12/19 02:28:49;;;;;;;380.53;352.03;;;6.70;99.90;;;;;;4975629;28;20723;-80
2021/12/19 02:31:14;;;;;;;382.40;354.23;;;6.70;99.90;;;;;;4992489;28;20286;-80
2021/12/19 02:33:43;;;;;;;389.00;360.17;;;6.70;99.90;;;;;;4984350;28;20208;-79
2021/12/19 02:49:32;;;;;;;404.10;373.50;;;6.90;99.90;;;;;;5000819;28;20199;-80
2021/12/19 02:51:59;;;;;;;409.50;378.40;;;6.90;99.90;;;;;;5001432;28;20190;-80
2021/12/19 02:54:25;;;;;;;416.80;385.27;;;7.00;99.90;;;;;;4991901;28;20267;-80
2021/12/19 02:56:51;;;;;;;421.23;389.13;;;7.00;99.90;;;;;;4985481;28;20195;-80
2021/12/19 02:59:18;;;;;;;422.93;390.30;;;7.00;99.90;;;;;;4969620;28;20652;-79
2021/12/19 03:01:45;;;;;;;426.97;394.77;;;7.00;99.90;;;;;;4976159;28;20682;-79
2021/12/19 03:04:13;;;;;;;425.37;393.20;;;7.10;99.90;;;;;;4960754;28;20298;-79
2021/12/19 03:06:44;;;;;;;431.67;399.33;;;7.00;99.90;;;;;;4976094;28;20315;-79
2021/12/19 03:09:10;;;;;;;433.47;400.77;;;7.00;99.90;;;;;;5003201;28;20187;-79
2021/12/19 03:19:53;;;;;;;438.40;404.80;;;7.10;99.90;;;;;;4919911;29;20190;-79
2021/12/19 03:22:19;;;;;;;444.70;410.83;;;7.10;99.90;;;;;;4930289;29;20194;-80
2021/12/19 03:24:45;;;;;;;443.53;409.67;;;7.10;99.90;;;;;;4946288;28;20199;-78
2021/12/19 03:27:10;;;;;;;470.60;434.80;;;7.20;99.90;;;;;;4975591;28;20199;-80
2021/12/19 03:29:36;;;;;;;448.93;413.97;;;7.20;99.90;;;;;;4958739;28;20596;-80
2021/12/19 03:32:02;;;;;;;452.43;417.83;;;7.20;99.90;;;;;;4974418;28;20778;-80
2021/12/19 03:34:27;;;;;;;455.67;420.47;;;7.20;99.90;;;;;;4967431;28;20215;-79
2021/12/19 03:36:53;;;;;;;456.57;421.90;;;7.20;99.90;;;;;;4989759;28;20533;-81
2021/12/19 03:39:27;;;;;;;463.10;427.47;;;7.20;99.90;;;;;;4999304;28;20262;-80
2021/12/19 03:41:55;;;;;;;461.30;426.40;;;7.30;99.90;;;;;;5000892;28;20673;-80
2021/12/19 03:44:20;;;;;;;461.37;426.27;;;7.30;99.90;;;;;;5000234;28;20731;-79
2021/12/19 03:46:46;;;;;;;458.23;423.10;;;7.30;99.90;;;;;;4973328;28;20251;-80
2021/12/19 03:49:16;;;;;;;465.63;430.27;;;7.30;99.90;;;;;;4989937;28;20192;-80
2021/12/19 03:51:42;;;;;;;471.17;435.50;;;7.40;99.90;;;;;;4970653;28;20212;-79
2021/12/19 03:54:08;;;;;;;493.70;456.53;;;7.30;99.90;;;;;;4985637;28;20246;-79
2021/12/19 03:56:33;;;;;;;556.07;513.93;;;7.30;99.90;;;;;;4957784;28;20212;-79
2021/12/19 03:58:59;;;;;;;565.97;522.97;;;7.30;99.90;;;;;;4958450;28;20330;-78
2021/12/19 04:01:25;;;;;;;567.90;524.97;;;7.30;99.90;;;;;;4969624;28;20315;-80
2021/12/19 04:03:50;;;;;;;569.87;526.10;;;7.30;99.90;;;;;;5006785;28;20556;-80
2021/12/19 04:06:16;;;;;;;569.97;526.40;;;7.30;99.90;;;;;;5005966;28;20261;-79
2021/12/19 04:08:42;;;;;;;569.50;526.23;;;7.30;99.90;;;;;;4982883;28;20206;-80
2021/12/19 04:11:08;;;;;;;567.70;524.70;;;7.30;99.90;;;;;;4973380;28;20207;-79
2021/12/19 04:13:33;;;;;;;568.70;525.60;;;7.30;99.90;;;;;;4965424;28;20211;-79
2021/12/19 04:15:59;;;;;;;569.77;526.53;;;7.30;99.90;;;;;;4949635;28;20195;-80
2021/12/19 04:18:25;;;;;;;596.50;551.20;;;7.30;99.90;;;;;;4966004;28;20195;-79
2021/12/19 04:20:51;;;;;;;570.90;527.70;;;7.30;99.90;;;;;;4988759;28;20204;-80
2021/12/19 04:23:17;;;;;;;579.00;534.90;;;7.30;99.90;;;;;;4999840;28;20191;-79
2021/12/19 04:25:42;;;;;;;579.93;535.97;;;7.30;99.90;;;;;;4973735;28;20199;-79
2021/12/19 04:28:08;;;;;;;578.53;534.63;;;7.20;99.90;;;;;;4982157;28;20218;-79
2021/12/19 04:30:34;;;;;;;574.03;530.43;;;7.30;99.90;;;;;;4982776;28;20560;-79
2021/12/19 04:33:11;;;;;;;573.63;530.00;;;7.30;99.90;;;;;;4983449;28;20783;-80
2021/12/19 04:35:40;;;;;;;579.70;535.70;;;7.30;99.90;;;;;;4990121;28;20203;-79
2021/12/19 04:57:24;;;;;;;621.70;573.70;;;7.30;99.90;;;;;;4973001;28;20223;-79
2021/12/19 04:59:57;;;;;;;622.00;574.10;;;7.30;99.90;;;;;;4961070;28;20203;-79
2021/12/19 05:02:40;;;;;;;624.53;576.10;;;7.30;99.90;;;;;;4986352;28;20198;-79
2021/12/19 05:06:13;;;;;;;626.43;578.27;;;7.30;99.90;;;;;;4977361;28;20258;-80
2021/12/19 05:16:04;;;;;;;634.50;585.90;;;7.40;99.90;;;;;;4980858;28;20649;-80
2021/12/19 05:18:33;;;;;;;627.87;579.77;;;7.30;99.90;;;;;;4985914;28;20503;-80
2021/12/19 05:21:04;;;;;;;635.70;587.10;;;7.40;99.90;;;;;;4970132;28;20191;-80
2021/12/19 05:25:56;;;;;;;635.13;586.37;;;7.40;99.90;;;;;;4993306;28;20207;-80
2021/12/19 05:28:22;;;;;;;637.70;588.80;;;7.40;99.90;;;;;;4954753;28;20223;-79
2021/12/19 05:30:48;;;;;;;632.23;583.77;;;7.40;99.90;;;;;;4986900;28;20315;-79
2021/12/19 05:33:14;;;;;;;638.53;589.77;;;7.40;99.90;;;;;;4985068;28;20319;-80
2021/12/19 05:46:38;;;;;;;640.90;591.93;;;7.40;99.90;;;;;;4994699;28;20203;-79
2021/12/19 05:49:06;;;;;;;636.73;587.80;;;7.40;99.90;;;;;;4969497;28;20584;-79
2021/12/19 05:51:33;;;;;;;638.77;589.77;;;7.40;99.90;;;;;;4977068;28;20196;-79
2021/12/19 05:53:59;;;;;;;647.83;598.63;;;7.40;99.90;;;;;;5004519;28;20722;-79
2021/12/19 05:56:24;;;;;;;644.53;595.23;;;7.40;99.90;;;;;;5000434;28;20724;-79
2021/12/19 05:58:50;;;;;;;647.07;597.70;;;7.40;99.90;;;;;;4993394;28;20270;-80
2021/12/19 06:01:16;;;;;;;637.87;588.77;;;7.50;99.90;;;;;;4977340;28;20191;-79
2021/12/19 06:03:42;;;;;;;648.73;599.13;;;7.50;99.90;;;;;;5003340;28;20250;-79
2021/12/19 06:06:07;;;;;;;651.87;602.17;;;7.50;99.90;;;;;;4959388;28;20674;-79
2021/12/19 06:08:33;;;;;;;651.27;601.37;;;7.50;99.90;;;;;;4960139;28;20620;-79
2021/12/19 06:10:59;;;;;;;649.93;600.27;;;7.50;99.90;;;;;;4968974;28;20575;-79
2021/12/19 06:13:24;;;;;;;649.70;599.93;;;7.50;99.90;;;;;;4986517;28;20582;-79
2021/12/19 06:15:53;;;;;;;654.37;604.83;;;7.50;99.90;;;;;;4953861;28;20231;-79
2021/12/19 06:18:19;;;;;;;656.80;607.13;;;7.50;99.90;;;;;;4987584;28;20271;-79
2021/12/19 06:20:45;;;;;;;651.67;601.97;;;7.50;99.90;;;;;;4991539;28;20260;-80
2021/12/19 06:23:11;;;;;;;650.00;599.97;;;7.50;99.90;;;;;;4992005;28;20198;-79
2021/12/19 06:25:37;;;;;;;650.80;600.90;;;7.50;99.90;;;;;;5000905;28;20204;-80
2021/12/19 06:28:03;;;;;;;645.23;595.83;;;7.50;99.90;;;;;;4991072;28;20215;-80
2021/12/19 06:30:29;;;;;;;644.23;594.70;;;7.50;99.90;;;;;;4986004;28;20188;-79
2021/12/19 06:32:56;;;;;;;640.40;591.20;;;7.40;99.90;;;;;;5003287;28;20215;-80
2021/12/19 06:35:28;;;;;;;644.63;595.13;;;7.40;99.90;;;;;;4985379;28;20544;-78
2021/12/19 06:37:54;;;;;;;640.43;591.13;;;7.40;99.90;;;;;;4954782;28;20852;-80
2021/12/19 06:40:21;;;;;;;644.70;595.33;;;7.40;99.90;;;;;;4968136;28;20212;-80
2021/12/19 06:42:47;;;;;;;644.50;595.30;;;7.40;99.90;;;;;;4975343;28;20646;-80
2021/12/19 06:45:13;;;;;;;644.73;595.33;;;7.40;99.90;;;;;;4986876;28;20669;-80
2021/12/19 06:47:40;;;;;;;644.87;595.33;;;7.40;99.90;;;;;;4991671;28;20195;-80
2021/12/19 06:50:08;;;;;;;640.57;591.23;;;7.40;99.90;;;;;;4992276;28;20210;-80
2021/12/19 06:52:35;;;;;;;637.63;588.40;;;7.50;99.90;;;;;;4986185;28;20194;-80
2021/12/19 06:55:01;;;;;;;661.57;612.50;;;7.50;99.90;;;;;;5000999;28;20191;-80
2021/12/19 06:57:26;;;;;;;639.57;590.37;;;7.40;99.90;;;;;;5008550;28;20282;-79
2021/12/19 06:59:52;;;;;;;645.73;596.43;;;7.50;99.90;;;;;;4974794;28;20195;-79
2021/12/19 07:02:18;;;;;;;647.77;598.47;;;7.50;99.90;;;;;;4984821;28;20202;-81
2021/12/19 07:04:44;;;;;;;643.63;594.33;;;7.50;99.90;;;;;;4958121;28;20322;-80
2021/12/19 07:07:10;;;;;;;650.70;601.47;;;7.50;99.90;;;;;;4968556;28;20259;-80
2021/12/19 07:09:36;;;;;;;651.17;601.47;;;7.50;99.90;;;;;;4968195;28;20196;-81
2021/12/19 07:12:02;;;;;;;647.03;597.57;;;7.50;99.90;;;;;;5006664;28;20211;-80
2021/12/19 07:14:28;;;;;;;668.70;619.10;;;7.60;99.90;;;;;;4967444;28;20216;-80
2021/12/19 07:16:54;;;;;;;648.97;599.27;;;7.60;99.90;;;;;;5000139;28;20199;-80
2021/12/19 07:19:19;;;;;;;642.73;593.23;;;7.60;99.90;;;;;;4982996;28;20204;-80
2021/12/19 07:21:45;;;;;;;647.83;598.63;;;7.60;99.90;;;;;;4960022;28;20216;-79
2021/12/19 07:24:11;;;;;;;643.07;593.57;;;7.60;99.90;;;;;;4998398;28;20199;-79
2021/12/19 07:26:36;;;;;;;649.17;599.67;;;7.60;99.90;;;;;;4975087;28;20216;-80
2021/12/19 07:29:03;;;;;;;659.57;609.97;;;7.60;99.90;;;;;;4992709;28;20196;-80
2021/12/19 07:31:30;;;;;;;650.53;600.70;;;7.60;99.90;;;;;;4991612;28;20199;-80
2021/12/19 07:33:57;;;;;;;654.27;604.30;;;7.60;99.90;;;;;;4975200;28;20211;-80
2021/12/19 07:36:25;;;;;;;655.57;605.53;;;7.70;99.90;;;;;;5008242;28;20179;-80
2021/12/19 07:39:01;;;;;;;659.70;609.80;;;7.70;99.90;;;;;;4984211;28;20563;-79
2021/12/19 07:41:26;;;;;;;661.10;611.40;;;7.60;99.90;;;;;;4989693;28;20195;-79
2021/12/19 07:43:52;;;;;;;655.57;605.37;;;7.60;99.90;;;;;;4983585;28;20206;-79
2021/12/19 07:46:18;;;;;;;651.17;601.47;;;7.60;99.90;;;;;;4957891;28;20905;-79
2021/12/19 07:48:44;;;;;;;646.87;597.23;;;7.60;99.90;;;;;;4990930;28;20180;-80
2021/12/19 07:51:09;;;;;;;653.30;603.37;;;7.60;99.90;;;;;;4991521;28;20241;-78
2021/12/19 07:53:35;;;;;;;654.30;604.10;;;7.70;99.90;;;;;;4999635;28;20216;-79
2021/12/19 07:56:01;;;;;;;661.67;611.67;;;7.70;99.90;;;;;;4983310;28;20294;-79
2021/12/19 07:58:27;;;;;;;663.90;614.13;;;7.60;99.90;;;;;;4966383;28;20212;-79
2021/12/19 08:00:53;;;;;;;646.17;596.60;;;7.70;99.90;;;;;;4992734;28;20196;-79
2021/12/19 08:03:18;;;;;;;645.43;595.83;;;7.70;99.90;;;;;;4982426;28;20561;-79
2021/12/19 08:05:44;;;;;;;651.43;601.93;;;7.80;99.90;;;;;;5006816;28;20199;-80
2021/12/19 08:08:15;;;;;;;649.13;599.67;;;7.70;99.90;;;;;;5005852;28;20251;-79
2021/12/19 08:13:08;;;;;;;655.70;606.67;;;7.70;99.90;;;;;;4998884;28;20208;-78
2021/12/19 08:15:35;;;;;;;635.57;586.87;;;7.70;99.90;;;;;;5006718;28;20191;-80
2021/12/19 08:18:01;;;;;;;665.90;617.53;;;7.70;99.90;;;;;;4983964;28;20200;-80
2021/12/19 08:20:27;;;;;;;627.53;579.23;;;7.80;99.90;;;;;;4999979;28;20191;-80
2021/12/19 08:22:54;;;;;;;622.93;575.03;;;7.80;99.90;;;;;;5000256;28;20198;-80
2021/12/19 08:25:21;;;;;;;656.77;608.57;;;7.80;99.90;;;;;;4999391;28;20203;-81
2021/12/19 08:27:47;;;;;;;638.27;589.40;;;7.80;99.90;;;;;;4983689;28;20235;-80
2021/12/19 08:30:14;;;;;;;632.33;583.63;;;7.90;99.90;;;;;;4968465;28;20222;-80
2021/12/19 08:32:40;;;;;;;643.27;594.33;;;7.80;99.90;;;;;;5002464;28;20192;-79
2021/12/19 08:35:07;;;;;;;637.07;588.37;;;7.80;99.90;;;;;;4991237;28;20684;-79
2021/12/19 08:37:33;;;;;;;635.80;587.30;;;7.80;99.90;;;;;;4966645;28;20690;-81
2021/12/19 08:39:59;;;;;;;664.87;615.43;;;7.80;99.90;;;;;;4990458;28;20191;-79
2021/12/19 08:42:25;;;;;;;646.67;597.50;;;7.80;99.90;;;;;;4974076;28;20243;-80
2021/12/19 08:44:51;;;;;;;653.83;604.27;;;7.90;99.90;;;;;;5001503;28;20195;-79
2021/12/19 08:47:17;;;;;;;680.90;629.63;;;7.90;99.90;;;;;;4952345;28;20616;-79
2021/12/19 08:49:43;;;;;;;672.00;621.20;;;7.90;99.90;;;;;;4974391;28;20199;-80
2021/12/19 08:52:10;;;;;;;685.30;634.10;;;7.90;99.90;;;;;;4967389;28;20226;-81
2021/12/19 08:54:37;;;;;;;682.50;631.23;;;7.90;99.90;;;;;;4984203;28;20230;-78
2021/12/19 08:57:03;;;;;;;679.03;628.60;;;7.90;99.90;;;;;;4983682;28;20207;-80
2021/12/19 08:59:29;;;;;;;676.10;625.23;;;7.90;99.90;;;;;;4989842;28;20541;-80
2021/12/19 09:01:58;;;;;;;678.57;627.77;;;8.00;99.90;;;;;;4983284;28;20290;-81
2021/12/19 09:04:24;;;;;;;660.00;610.27;;;8.10;99.90;;;;;;4990799;28;20219;-80
2021/12/19 09:06:49;;;;;;;654.13;605.13;;;8.10;99.90;;;;;;5005984;28;20687;-80
2021/12/19 09:09:15;;;;;;;650.53;601.33;;;8.10;99.90;;;;;;4983498;28;20204;-80
2021/12/19 09:11:42;;;;;;;656.20;607.20;;;8.10;99.90;;;;;;4974637;28;20302;-79
2021/12/19 09:14:07;;;;;;;634.97;586.53;;;8.10;99.90;;;;;;5005790;28;20294;-79
2021/12/19 09:16:33;;;;;;;634.40;586.50;;;8.10;99.90;;;;;;4966344;28;20727;-81
2021/12/19 09:18:59;;;;;;;621.17;574.37;;;8.10;99.90;;;;;;4989699;28;20275;-80
2021/12/19 09:21:24;;;;;;;622.50;575.83;;;8.10;99.90;;;;;;4990942;28;20191;-81
2021/12/19 09:23:51;;;;;;;620.80;573.67;;;8.10;99.90;;;;;;5003190;28;20255;-81
2021/12/19 09:26:17;;;;;;;638.80;591.97;;;8.10;99.90;;;;;;4983418;28;20196;-81
2021/12/19 09:28:42;;;;;;;651.60;604.47;;;8.10;99.90;;;;;;4975364;28;20202;-80
2021/12/19 09:31:08;;;;;;;635.50;587.53;;;8.20;99.90;;;;;;4974383;28;20192;-79
2021/12/19 09:33:34;;;;;;;631.73;584.03;;;8.30;99.90;;;;;;4950754;28;20550;-79
2021/12/19 09:36:00;;;;;;;637.67;589.67;;;8.30;99.90;;;;;;4983171;28;20641;-81
2021/12/19 09:38:26;;;;;;;644.73;596.43;;;8.30;99.90;;;;;;4957053;28;20304;-81
2021/12/19 09:41:00;;;;;;;643.73;595.70;;;8.30;99.90;;;;;;4989032;28;20188;-79
2021/12/19 09:43:41;;;;;;;673.13;623.63;;;8.30;99.90;;;;;;5000576;28;20318;-81
2021/12/19 09:46:11;;;;;;;664.80;615.27;;;8.30;99.90;;;;;;4982804;28;20195;-79
2021/12/19 09:48:38;;;;;;;668.33;618.83;;;8.30;99.90;;;;;;4985089;28;20184;-81
2021/12/19 09:51:05;;;;;;;698.50;647.50;;;8.30;99.90;;;;;;4991850;28;20619;-80
2021/12/19 09:53:30;;;;;;;693.50;642.00;;;8.30;99.90;;;;;;4993437;28;20585;-80
2021/12/19 09:55:56;;;;;;;709.47;658.07;;;8.30;99.90;;;;;;4960532;28;20219;-80
2021/12/19 09:58:22;;;;;;;694.00;641.90;;;8.30;99.90;;;;;;4986806;28;20196;-79
2021/12/19 10:00:47;;;;;;;697.47;645.47;;;8.30;99.90;;;;;;4977873;28;20191;-81
2021/12/19 10:03:16;;;;;;;709.40;656.70;;;8.30;99.90;;;;;;4986737;28;20233;-80
2021/12/19 10:05:41;;;;;;;700.10;647.73;;;8.30;99.90;;;;;;5002632;28;20196;-80
2021/12/19 10:08:08;;;;;;;699.37;647.00;;;8.30;99.90;;;;;;4957493;28;20259;-79
2021/12/19 10:10:55;;;;;;;701.17;649.47;;;8.30;99.90;;;;;;4942885;28;20312;-79
2021/12/19 10:13:33;;;;;;;698.03;646.20;;;8.40;99.90;;;;;;4990019;28;20235;-80
2021/12/19 10:15:58;;;;;;;686.13;634.93;;;8.40;99.90;;;;;;4983402;28;20638;-80
2021/12/19 10:18:24;;;;;;;701.03;649.13;;;8.40;99.90;;;;;;4983720;28;20222;-80
2021/12/19 10:20:59;;;;;;;697.43;645.97;;;8.40;99.90;;;;;;4951443;28;20285;-80
2021/12/19 10:23:30;;;;;;;696.73;644.73;;;8.40;99.90;;;;;;4968841;28;20204;-79
2021/12/19 10:26:06;;;;;;;693.67;642.33;;;8.40;99.90;;;;;;4983887;28;20215;-80
2021/12/19 10:28:33;;;;;;;692.77;640.67;;;8.40;99.90;;;;;;4967723;28;20232;-81
2021/12/19 10:31:02;;;;;;;689.17;637.17;;;8.30;99.90;;;;;;4951390;28;20257;-80
2021/12/19 10:33:31;;;;;;;705.97;652.77;;;8.30;99.90;;;;;;4988462;28;20223;-79
2021/12/19 10:36:06;;;;;;;702.37;649.37;;;8.30;99.90;;;;;;4966526;28;20203;-80
2021/12/19 10:38:43;;;;;;;695.47;643.07;;;8.20;99.90;;;;;;4966237;28;20192;-81
2021/12/19 10:41:14;;;;;;;693.03;640.87;;;8.20;99.90;;;;;;4973288;28;20254;-80
2021/12/19 10:44:04;;;;;;;692.37;640.50;;;8.20;99.90;;;;;;4967122;28;20251;-79
2021/12/19 10:46:33;;;;;;;683.50;631.80;;;8.30;99.90;;;;;;4965242;28;20720;-80
2021/12/19 10:49:01;;;;;;;696.00;643.93;;;8.30;99.90;;;;;;4972057;28;20212;-81
2021/12/19 10:51:29;;;;;;;697.60;645.90;;;8.40;99.90;;;;;;4965604;28;20196;-81
2021/12/19 10:53:57;;;;;;;694.80;643.03;;;8.40;99.90;;;;;;4972263;28;20247;-80
2021/12/19 10:56:34;;;;;;;697.13;646.43;;;8.50;99.90;;;;;;4972177;28;20196;-79
2021/12/19 10:59:09;;;;;;;680.53;629.83;;;8.50;99.90;;;;;;4989137;28;20553;-80
2021/12/19 11:01:47;;;;;;;678.17;627.67;;;8.50;99.90;;;;;;4988082;28;20271;-81
2021/12/19 11:04:22;;;;;;;678.53;628.30;;;8.60;99.90;;;;;;4983447;28;20215;-80
2021/12/19 11:06:54;;;;;;;666.13;616.87;;;8.60;99.90;;;;;;4989724;28;20180;-80
2021/12/19 11:09:21;;;;;;;656.43;606.90;;;8.60;99.90;;;;;;4987079;28;20671;-81
2021/12/19 11:11:56;;;;;;;646.53;597.23;;;8.60;99.90;;;;;;5007112;28;20211;-81
2021/12/19 11:14:22;;;;;;;647.70;598.47;;;8.60;99.90;;;;;;5008035;28;20240;-78
2021/12/19 11:16:51;;;;;;;645.63;596.40;;;8.50;99.90;;;;;;5001422;28;20215;-80
2021/12/19 11:19:17;;;;;;;640.77;591.73;;;8.50;99.90;;;;;;4985325;28;20675;-78
2021/12/19 11:21:43;;;;;;;643.77;594.83;;;8.50;99.90;;;;;;4985156;28;20252;-80
2021/12/19 11:24:15;;;;;;;625.60;576.77;;;8.50;99.90;;;;;;4958962;28;20242;-81
2021/12/19 11:26:45;;;;;;;621.30;572.80;;;8.50;99.90;;;;;;4983175;28;20685;-81
2021/12/19 11:29:12;;;;;;;615.37;567.67;;;8.50;99.90;;;;;;4991484;28;20206;-80
2021/12/19 11:31:39;;;;;;;613.90;566.30;;;8.50;99.90;;;;;;5001505;28;20188;-80
2021/12/19 11:34:08;;;;;;;614.43;567.13;;;8.60;99.90;;;;;;4985132;28;20285;-79
2021/12/19 11:36:41;;;;;;;599.13;552.73;;;8.60;99.90;;;;;;5002313;28;20742;-80
2021/12/19 11:39:08;;;;;;;608.67;561.63;;;8.60;99.90;;;;;;4984335;28;20187;-79
2021/12/19 11:41:35;;;;;;;601.63;554.90;;;8.70;99.90;;;;;;4991754;28;20231;-80
2021/12/19 11:44:05;;;;;;;593.93;548.83;;;8.60;99.90;;;;;;4986142;28;20196;-79
2021/12/19 11:46:51;;;;;;;581.13;536.17;;;8.70;99.90;;;;;;4975322;28;20712;-79
2021/12/19 11:49:22;;;;;;;481.23;444.97;;;8.80;99.90;;;;;;4983005;28;20198;-80
2021/12/19 11:51:49;;;;;;;478.67;442.40;;;8.80;99.90;;;;;;4966697;28;20215;-80
2021/12/19 11:54:17;;;;;;;472.50;436.93;;;8.80;99.90;;;;;;4958959;28;20211;-79
2021/12/19 11:57:07;;;;;;;469.50;434.40;;;8.80;99.90;;;;;;4985226;28;20265;-81
2021/12/19 11:59:34;;;;;;;465.73;430.90;;;8.70;99.90;;;;;;4983173;28;20691;-79
2021/12/19 12:02:23;;;;;;;462.23;427.87;;;8.70;99.90;;;;;;4985113;28;20191;-80
2021/12/19 12:05:13;;;;;;;472.60;437.10;;;8.80;99.90;;;;;;4986266;28;20627;-79
2021/12/19 12:08:04;;;;;;;467.63;433.60;;;8.80;99.90;;;;;;4981129;28;20323;-80
2021/12/19 12:10:52;;;;;;;459.93;425.97;;;8.80;99.90;;;;;;4970081;28;20326;-81
2021/12/19 12:13:22;;;;;;;460.47;427.60;;;8.70;99.90;;;;;;4983032;28;20248;-79
2021/12/19 12:15:54;;;;;;;456.63;423.40;;;8.70;99.90;;;;;;4962614;28;20666;-80
2021/12/19 12:18:31;;;;;;;450.83;418.70;;;8.70;99.90;;;;;;4981366;28;20176;-81
2021/12/19 12:20:57;;;;;;;455.87;423.93;;;8.70;99.90;;;;;;4963164;28;20541;-80
2021/12/19 12:23:27;;;;;;;449.10;416.37;;;8.70;99.90;;;;;;4963830;28;20200;-80
2021/12/19 12:25:54;;;;;;;439.10;407.37;;;8.70;99.90;;;;;;4969312;28;20865;-80
2021/12/19 12:28:20;;;;;;;441.27;409.13;;;8.70;99.90;;;;;;4953540;28;20243;-80
2021/12/19 12:30:52;;;;;;;431.27;400.43;;;8.70;99.90;;;;;;4938920;28;20288;-79
2021/12/19 12:33:21;;;;;;;434.33;402.83;;;8.80;99.90;;;;;;4971441;28;20227;-80
2021/12/19 12:35:50;;;;;;;426.80;395.97;;;8.80;99.90;;;;;;4970963;28;20184;-80
2021/12/19 12:38:16;;;;;;;420.80;390.00;;;8.70;99.90;;;;;;4963481;28;20196;-81
2021/12/19 12:43:14;;;;;;;422.37;392.63;;;8.70;99.90;;;;;;4981778;28;20201;-81
2021/12/19 12:45:57;;;;;;;423.63;392.97;;;8.70;99.90;;;;;;4963838;28;20189;-81
2021/12/19 12:48:49;;;;;;;411.23;382.10;;;8.80;99.90;;;;;;4982260;28;20263;-81
2021/12/19 12:51:20;;;;;;;409.47;380.30;;;8.80;99.90;;;;;;4962658;28;20220;-80
2021/12/19 12:53:48;;;;;;;403.77;375.03;;;8.70;99.90;;;;;;4964896;28;20618;-81
2021/12/19 12:56:19;;;;;;;399.47;371.63;;;8.70;99.90;;;;;;4964063;28;20589;-81
2021/12/19 12:58:48;;;;;;;401.70;374.47;;;8.70;99.90;;;;;;4986016;28;20601;-81
2021/12/19 13:01:23;;;;;;;383.33;356.20;;;8.60;99.90;;;;;;4980742;28;20195;-80
2021/12/19 13:04:19;;;;;;;383.53;356.93;;;8.60;99.90;;;;;;4979353;28;20259;-80
2021/12/19 13:06:57;;;;;;;379.60;353.30;;;8.60;99.90;;;;;;4982552;28;20252;-80
2021/12/19 13:09:39;;;;;;;373.00;347.73;;;8.50;99.90;;;;;;4982004;28;20199;-79
2021/12/19 13:12:20;;;;;;;361.43;336.57;;;8.50;99.90;;;;;;4989518;28;20339;-80
2021/12/19 13:14:53;;;;;;;352.43;328.60;;;8.50;99.90;;;;;;4999686;28;20212;-82
2021/12/19 13:17:20;;;;;;;358.20;333.97;;;8.50;99.90;;;;;;5000523;28;20701;-80
2021/12/19 13:19:49;;;;;;;356.20;332.33;;;8.50;99.90;;;;;;5000163;28;20218;-80
2021/12/19 13:22:17;;;;;;;353.23;330.00;;;8.40;99.90;;;;;;4984994;28;20267;-79
2021/12/19 13:24:43;;;;;;;349.27;326.57;;;8.30;99.90;;;;;;5004713;28;20255;-81
2021/12/19 13:27:14;;;;;;;349.43;326.17;;;8.30;99.90;;;;;;4977116;28;20229;-81
2021/12/19 13:29:42;;;;;;;339.93;317.57;;;8.30;99.90;;;;;;5002058;28;20202;-81
2021/12/19 13:32:23;;;;;;;346.57;323.80;;;8.20;99.90;;;;;;4993481;28;20211;-80
2021/12/19 13:34:50;;;;;;;349.00;325.90;;;8.30;99.90;;;;;;4993151;28;20207;-80
2021/12/19 13:37:17;;;;;;;337.50;315.77;;;8.30;99.90;;;;;;4986827;28;20190;-79